sensor_id;sensor_type;location;lat;lon;timestamp;P1;durP1;ratioP1;P2;durP2;ratioP2
57093;SDS011;42970;50.996;3.706;2024-01-25T00:00:46;24.65;;;3.88;;
57093;SDS011;42970;50.996;3.706;2024-01-25T00:03:11;16.10;;;2.45;;
57093;SDS011;42970;50.996;3.706;2024-01-25T00:05:36;32.78;;;4.93;;
57093;SDS011;42970;50.996;3.706;2024-01-25T00:08:01;39.00;;;5.60;;
57093;SDS011;42970;50.996;3.706;2024-01-25T00:10:27;45.22;;;6.53;;
57093;SDS011;42970;50.996;3.706;2024-01-25T00:12:52;28.77;;;4.30;;
57093;SDS011;42970;50.996;3.706;2024-01-25T00:15:18;27.30;;;3.47;;
57093;SDS011;42970;50.996;3.706;2024-01-25T00:17:43;43.72;;;5.47;;
57093;SDS011;42970;50.996;3.706;2024-01-25T00:20:09;34.67;;;4.38;;
57093;SDS011;42970;50.996;3.706;2024-01-25T00:22:34;41.75;;;5.45;;
57093;SDS011;42970;50.996;3.706;2024-01-25T00:24:59;29.52;;;4.65;;
57093;SDS011;42970;50.996;3.706;2024-01-25T00:27:25;35.85;;;4.82;;
57093;SDS011;42970;50.996;3.706;2024-01-25T00:29:50;25.33;;;5.47;;
57093;SDS011;42970;50.996;3.706;2024-01-25T00:32:15;35.70;;;4.65;;
57093;SDS011;42970;50.996;3.706;2024-01-25T00:34:41;38.70;;;4.60;;
57093;SDS011;42970;50.996;3.706;2024-01-25T00:37:06;37.88;;;5.28;;
57093;SDS011;42970;50.996;3.706;2024-01-25T00:39:31;56.67;;;7.47;;
57093;SDS011;42970;50.996;3.706;2024-01-25T00:41:58;23.97;;;4.20;;
57093;SDS011;42970;50.996;3.706;2024-01-25T00:44:25;27.35;;;3.70;;
57093;SDS011;42970;50.996;3.706;2024-01-25T00:46:52;25.03;;;2.77;;
57093;SDS011;42970;50.996;3.706;2024-01-25T00:49:18;25.35;;;3.20;;
57093;SDS011;42970;50.996;3.706;2024-01-25T00:51:45;19.60;;;2.75;;
57093;SDS011;42970;50.996;3.706;2024-01-25T00:54:11;35.47;;;4.93;;
57093;SDS011;42970;50.996;3.706;2024-01-25T00:56:37;43.15;;;4.63;;
57093;SDS011;42970;50.996;3.706;2024-01-25T00:59:02;39.40;;;4.50;;
57093;SDS011;42970;50.996;3.706;2024-01-25T01:01:27;41.40;;;5.03;;
57093;SDS011;42970;50.996;3.706;2024-01-25T01:03:53;36.60;;;5.85;;
57093;SDS011;42970;50.996;3.706;2024-01-25T01:06:20;8.27;;;2.92;;
57093;SDS011;42970;50.996;3.706;2024-01-25T01:08:46;57.35;;;6.18;;
57093;SDS011;42970;50.996;3.706;2024-01-25T01:11:11;36.00;;;5.23;;
57093;SDS011;42970;50.996;3.706;2024-01-25T01:13:36;34.80;;;3.60;;
57093;SDS011;42970;50.996;3.706;2024-01-25T01:16:01;38.03;;;5.60;;
57093;SDS011;42970;50.996;3.706;2024-01-25T01:18:27;54.20;;;6.47;;
57093;SDS011;42970;50.996;3.706;2024-01-25T01:20:53;53.53;;;5.68;;
57093;SDS011;42970;50.996;3.706;2024-01-25T01:23:18;59.23;;;5.70;;
57093;SDS011;42970;50.996;3.706;2024-01-25T01:25:43;30.70;;;4.65;;
57093;SDS011;42970;50.996;3.706;2024-01-25T01:28:08;45.17;;;5.03;;
57093;SDS011;42970;50.996;3.706;2024-01-25T01:30:34;56.65;;;5.70;;
57093;SDS011;42970;50.996;3.706;2024-01-25T01:32:59;34.47;;;6.07;;
57093;SDS011;42970;50.996;3.706;2024-01-25T01:35:24;39.23;;;6.50;;
57093;SDS011;42970;50.996;3.706;2024-01-25T01:37:49;44.25;;;6.22;;
57093;SDS011;42970;50.996;3.706;2024-01-25T01:40:15;31.47;;;5.37;;
57093;SDS011;42970;50.996;3.706;2024-01-25T01:42:40;44.10;;;6.30;;
57093;SDS011;42970;50.996;3.706;2024-01-25T01:45:05;39.45;;;5.90;;
57093;SDS011;42970;50.996;3.706;2024-01-25T01:47:31;29.93;;;4.90;;
57093;SDS011;42970;50.996;3.706;2024-01-25T01:49:56;29.53;;;4.83;;
57093;SDS011;42970;50.996;3.706;2024-01-25T01:52:21;34.73;;;5.00;;
57093;SDS011;42970;50.996;3.706;2024-01-25T01:54:47;49.00;;;5.63;;
57093;SDS011;42970;50.996;3.706;2024-01-25T01:57:12;27.50;;;4.43;;
57093;SDS011;42970;50.996;3.706;2024-01-25T01:59:38;44.77;;;6.93;;
57093;SDS011;42970;50.996;3.706;2024-01-25T02:02:03;42.70;;;4.97;;
57093;SDS011;42970;50.996;3.706;2024-01-25T02:04:28;43.33;;;5.50;;
57093;SDS011;42970;50.996;3.706;2024-01-25T02:06:53;28.60;;;4.30;;
57093;SDS011;42970;50.996;3.706;2024-01-25T02:09:20;42.40;;;6.70;;
57093;SDS011;42970;50.996;3.706;2024-01-25T02:11:45;27.03;;;5.00;;
57093;SDS011;42970;50.996;3.706;2024-01-25T02:14:10;31.77;;;5.77;;
57093;SDS011;42970;50.996;3.706;2024-01-25T02:16:37;21.77;;;4.83;;
57093;SDS011;42970;50.996;3.706;2024-01-25T02:19:02;36.60;;;4.77;;
57093;SDS011;42970;50.996;3.706;2024-01-25T02:21:28;28.17;;;4.77;;
57093;SDS011;42970;50.996;3.706;2024-01-25T02:23:53;24.33;;;4.20;;
57093;SDS011;42970;50.996;3.706;2024-01-25T02:26:18;18.10;;;3.47;;
57093;SDS011;42970;50.996;3.706;2024-01-25T02:28:44;25.70;;;4.17;;
57093;SDS011;42970;50.996;3.706;2024-01-25T02:31:09;38.50;;;4.57;;
57093;SDS011;42970;50.996;3.706;2024-01-25T02:33:34;42.27;;;5.90;;
57093;SDS011;42970;50.996;3.706;2024-01-25T02:35:59;37.90;;;6.38;;
57093;SDS011;42970;50.996;3.706;2024-01-25T02:38:25;27.50;;;5.17;;
57093;SDS011;42970;50.996;3.706;2024-01-25T02:40:50;25.83;;;3.57;;
57093;SDS011;42970;50.996;3.706;2024-01-25T02:43:15;50.20;;;5.07;;
57093;SDS011;42970;50.996;3.706;2024-01-25T02:45:40;41.03;;;4.20;;
57093;SDS011;42970;50.996;3.706;2024-01-25T02:48:06;37.37;;;5.93;;
57093;SDS011;42970;50.996;3.706;2024-01-25T02:50:31;32.17;;;4.43;;
57093;SDS011;42970;50.996;3.706;2024-01-25T02:52:56;25.33;;;3.57;;
57093;SDS011;42970;50.996;3.706;2024-01-25T02:55:22;29.93;;;5.03;;
57093;SDS011;42970;50.996;3.706;2024-01-25T02:57:47;39.60;;;5.90;;
57093;SDS011;42970;50.996;3.706;2024-01-25T03:00:12;19.60;;;4.17;;
57093;SDS011;42970;50.996;3.706;2024-01-25T03:02:38;34.47;;;4.50;;
57093;SDS011;42970;50.996;3.706;2024-01-25T03:05:03;45.57;;;5.57;;
57093;SDS011;42970;50.996;3.706;2024-01-25T03:07:29;37.87;;;5.67;;
57093;SDS011;42970;50.996;3.706;2024-01-25T03:09:54;36.30;;;4.73;;
57093;SDS011;42970;50.996;3.706;2024-01-25T03:12:19;35.37;;;4.73;;
57093;SDS011;42970;50.996;3.706;2024-01-25T03:14:45;37.97;;;4.67;;
57093;SDS011;42970;50.996;3.706;2024-01-25T03:17:10;23.30;;;4.53;;
57093;SDS011;42970;50.996;3.706;2024-01-25T03:19:37;21.90;;;3.03;;
57093;SDS011;42970;50.996;3.706;2024-01-25T03:22:02;26.27;;;5.10;;
57093;SDS011;42970;50.996;3.706;2024-01-25T03:24:28;33.63;;;3.87;;
57093;SDS011;42970;50.996;3.706;2024-01-25T03:26:53;32.53;;;5.10;;
57093;SDS011;42970;50.996;3.706;2024-01-25T03:29:19;25.93;;;4.00;;
57093;SDS011;42970;50.996;3.706;2024-01-25T03:31:44;33.50;;;5.00;;
57093;SDS011;42970;50.996;3.706;2024-01-25T03:34:09;35.93;;;5.57;;
57093;SDS011;42970;50.996;3.706;2024-01-25T03:36:35;31.93;;;4.83;;
57093;SDS011;42970;50.996;3.706;2024-01-25T03:39:01;35.27;;;5.90;;
57093;SDS011;42970;50.996;3.706;2024-01-25T03:41:26;40.63;;;4.00;;
57093;SDS011;42970;50.996;3.706;2024-01-25T03:43:54;27.97;;;3.77;;
57093;SDS011;42970;50.996;3.706;2024-01-25T03:46:19;23.63;;;3.47;;
57093;SDS011;42970;50.996;3.706;2024-01-25T03:48:44;38.27;;;5.57;;
57093;SDS011;42970;50.996;3.706;2024-01-25T03:51:09;48.93;;;4.90;;
57093;SDS011;42970;50.996;3.706;2024-01-25T03:53:35;33.00;;;3.70;;
57093;SDS011;42970;50.996;3.706;2024-01-25T03:56:00;39.63;;;4.60;;
57093;SDS011;42970;50.996;3.706;2024-01-25T03:58:25;32.93;;;6.00;;
57093;SDS011;42970;50.996;3.706;2024-01-25T04:00:51;32.67;;;5.70;;
57093;SDS011;42970;50.996;3.706;2024-01-25T04:03:16;34.97;;;5.23;;
57093;SDS011;42970;50.996;3.706;2024-01-25T04:05:41;29.40;;;5.70;;
57093;SDS011;42970;50.996;3.706;2024-01-25T04:08:06;34.40;;;5.33;;
57093;SDS011;42970;50.996;3.706;2024-01-25T04:10:32;34.80;;;6.13;;
57093;SDS011;42970;50.996;3.706;2024-01-25T04:12:57;25.17;;;4.07;;
57093;SDS011;42970;50.996;3.706;2024-01-25T04:15:23;48.63;;;5.00;;
57093;SDS011;42970;50.996;3.706;2024-01-25T04:17:48;31.33;;;5.73;;
57093;SDS011;42970;50.996;3.706;2024-01-25T04:20:14;58.13;;;6.90;;
57093;SDS011;42970;50.996;3.706;2024-01-25T04:22:39;31.50;;;5.20;;
57093;SDS011;42970;50.996;3.706;2024-01-25T04:25:05;36.57;;;5.97;;
57093;SDS011;42970;50.996;3.706;2024-01-25T04:27:30;27.67;;;5.90;;
57093;SDS011;42970;50.996;3.706;2024-01-25T04:29:55;30.70;;;4.37;;
57093;SDS011;42970;50.996;3.706;2024-01-25T04:32:20;29.73;;;6.30;;
57093;SDS011;42970;50.996;3.706;2024-01-25T04:34:46;35.10;;;5.93;;
57093;SDS011;42970;50.996;3.706;2024-01-25T04:37:12;33.07;;;6.00;;
57093;SDS011;42970;50.996;3.706;2024-01-25T04:39:38;27.27;;;5.03;;
57093;SDS011;42970;50.996;3.706;2024-01-25T04:42:03;30.27;;;5.57;;
57093;SDS011;42970;50.996;3.706;2024-01-25T04:44:28;35.53;;;6.20;;
57093;SDS011;42970;50.996;3.706;2024-01-25T04:46:54;36.30;;;5.73;;
57093;SDS011;42970;50.996;3.706;2024-01-25T04:49:19;49.13;;;7.10;;
57093;SDS011;42970;50.996;3.706;2024-01-25T04:51:45;25.33;;;5.33;;
57093;SDS011;42970;50.996;3.706;2024-01-25T04:54:10;26.73;;;5.53;;
57093;SDS011;42970;50.996;3.706;2024-01-25T04:56:38;29.30;;;4.67;;
57093;SDS011;42970;50.996;3.706;2024-01-25T04:59:03;41.53;;;6.23;;
57093;SDS011;42970;50.996;3.706;2024-01-25T05:01:28;38.13;;;5.30;;
57093;SDS011;42970;50.996;3.706;2024-01-25T05:03:53;36.47;;;6.03;;
57093;SDS011;42970;50.996;3.706;2024-01-25T05:06:19;40.47;;;6.80;;
57093;SDS011;42970;50.996;3.706;2024-01-25T05:08:44;34.83;;;6.57;;
57093;SDS011;42970;50.996;3.706;2024-01-25T05:11:10;44.43;;;7.00;;
57093;SDS011;42970;50.996;3.706;2024-01-25T05:13:35;35.40;;;6.63;;
57093;SDS011;42970;50.996;3.706;2024-01-25T05:16:00;22.67;;;5.23;;
57093;SDS011;42970;50.996;3.706;2024-01-25T05:18:26;39.37;;;5.83;;
57093;SDS011;42970;50.996;3.706;2024-01-25T05:20:51;34.93;;;5.00;;
57093;SDS011;42970;50.996;3.706;2024-01-25T05:23:16;34.30;;;5.03;;
57093;SDS011;42970;50.996;3.706;2024-01-25T05:25:41;25.70;;;4.90;;
57093;SDS011;42970;50.996;3.706;2024-01-25T05:28:06;24.53;;;4.00;;
57093;SDS011;42970;50.996;3.706;2024-01-25T05:30:32;31.27;;;5.13;;
57093;SDS011;42970;50.996;3.706;2024-01-25T05:32:57;28.77;;;4.87;;
57093;SDS011;42970;50.996;3.706;2024-01-25T05:35:22;22.07;;;4.17;;
57093;SDS011;42970;50.996;3.706;2024-01-25T05:37:48;20.80;;;4.37;;
57093;SDS011;42970;50.996;3.706;2024-01-25T05:40:14;27.17;;;5.03;;
57093;SDS011;42970;50.996;3.706;2024-01-25T05:42:39;23.67;;;3.70;;
57093;SDS011;42970;50.996;3.706;2024-01-25T05:45:07;17.00;;;4.87;;
57093;SDS011;42970;50.996;3.706;2024-01-25T05:47:34;42.20;;;5.67;;
57093;SDS011;42970;50.996;3.706;2024-01-25T05:49:59;33.00;;;5.43;;
57093;SDS011;42970;50.996;3.706;2024-01-25T05:52:24;28.20;;;4.97;;
57093;SDS011;42970;50.996;3.706;2024-01-25T05:54:50;43.90;;;5.50;;
57093;SDS011;42970;50.996;3.706;2024-01-25T05:57:15;33.63;;;4.60;;
57093;SDS011;42970;50.996;3.706;2024-01-25T05:59:42;39.23;;;4.17;;
57093;SDS011;42970;50.996;3.706;2024-01-25T06:02:07;34.80;;;5.43;;
57093;SDS011;42970;50.996;3.706;2024-01-25T06:04:33;46.60;;;5.07;;
57093;SDS011;42970;50.996;3.706;2024-01-25T06:06:58;34.90;;;5.37;;
57093;SDS011;42970;50.996;3.706;2024-01-25T06:09:25;27.90;;;5.57;;
57093;SDS011;42970;50.996;3.706;2024-01-25T06:11:50;43.27;;;6.80;;
57093;SDS011;42970;50.996;3.706;2024-01-25T06:14:16;28.77;;;5.23;;
57093;SDS011;42970;50.996;3.706;2024-01-25T06:16:41;29.77;;;5.00;;
57093;SDS011;42970;50.996;3.706;2024-01-25T06:19:06;34.10;;;4.97;;
57093;SDS011;42970;50.996;3.706;2024-01-25T06:21:32;30.00;;;5.17;;
57093;SDS011;42970;50.996;3.706;2024-01-25T06:24:00;38.03;;;6.73;;
57093;SDS011;42970;50.996;3.706;2024-01-25T06:26:25;30.27;;;7.10;;
57093;SDS011;42970;50.996;3.706;2024-01-25T06:28:50;31.33;;;6.33;;
57093;SDS011;42970;50.996;3.706;2024-01-25T06:31:16;34.93;;;8.50;;
57093;SDS011;42970;50.996;3.706;2024-01-25T06:33:41;46.00;;;8.30;;
57093;SDS011;42970;50.996;3.706;2024-01-25T06:36:06;26.93;;;7.37;;
57093;SDS011;42970;50.996;3.706;2024-01-25T06:38:32;41.80;;;6.37;;
57093;SDS011;42970;50.996;3.706;2024-01-25T06:40:57;46.67;;;7.60;;
57093;SDS011;42970;50.996;3.706;2024-01-25T06:43:22;64.43;;;6.17;;
57093;SDS011;42970;50.996;3.706;2024-01-25T06:45:47;35.77;;;6.10;;
57093;SDS011;42970;50.996;3.706;2024-01-25T06:48:13;48.23;;;7.17;;
57093;SDS011;42970;50.996;3.706;2024-01-25T06:50:38;51.70;;;7.90;;
57093;SDS011;42970;50.996;3.706;2024-01-25T06:53:03;53.03;;;7.13;;
57093;SDS011;42970;50.996;3.706;2024-01-25T06:55:29;41.90;;;7.10;;
57093;SDS011;42970;50.996;3.706;2024-01-25T06:57:54;50.33;;;7.53;;
57093;SDS011;42970;50.996;3.706;2024-01-25T07:00:19;40.00;;;6.23;;
57093;SDS011;42970;50.996;3.706;2024-01-25T07:02:46;44.23;;;6.47;;
57093;SDS011;42970;50.996;3.706;2024-01-25T07:05:11;35.20;;;6.63;;
57093;SDS011;42970;50.996;3.706;2024-01-25T07:07:36;31.17;;;5.60;;
57093;SDS011;42970;50.996;3.706;2024-01-25T07:10:03;60.27;;;7.70;;
57093;SDS011;42970;50.996;3.706;2024-01-25T07:12:29;42.20;;;7.43;;
57093;SDS011;42970;50.996;3.706;2024-01-25T07:14:55;45.63;;;7.63;;
57093;SDS011;42970;50.996;3.706;2024-01-25T07:17:20;34.77;;;7.20;;
57093;SDS011;42970;50.996;3.706;2024-01-25T07:19:45;34.37;;;7.60;;
57093;SDS011;42970;50.996;3.706;2024-01-25T07:22:11;39.93;;;7.43;;
57093;SDS011;42970;50.996;3.706;2024-01-25T07:24:39;41.33;;;6.60;;
57093;SDS011;42970;50.996;3.706;2024-01-25T07:27:04;39.27;;;7.27;;
57093;SDS011;42970;50.996;3.706;2024-01-25T07:29:29;65.93;;;8.67;;
57093;SDS011;42970;50.996;3.706;2024-01-25T07:31:54;50.83;;;6.63;;
57093;SDS011;42970;50.996;3.706;2024-01-25T07:34:20;59.17;;;9.40;;
57093;SDS011;42970;50.996;3.706;2024-01-25T07:36:45;58.43;;;6.97;;
57093;SDS011;42970;50.996;3.706;2024-01-25T07:39:10;50.27;;;8.53;;
57093;SDS011;42970;50.996;3.706;2024-01-25T07:41:36;65.30;;;8.50;;
57093;SDS011;42970;50.996;3.706;2024-01-25T07:44:01;120.03;;;8.90;;
57093;SDS011;42970;50.996;3.706;2024-01-25T07:46:27;59.30;;;7.40;;
57093;SDS011;42970;50.996;3.706;2024-01-25T07:48:52;61.60;;;6.13;;
57093;SDS011;42970;50.996;3.706;2024-01-25T07:51:17;28.27;;;6.37;;
57093;SDS011;42970;50.996;3.706;2024-01-25T07:53:43;69.70;;;8.73;;
57093;SDS011;42970;50.996;3.706;2024-01-25T07:56:08;45.00;;;6.70;;
57093;SDS011;42970;50.996;3.706;2024-01-25T07:58:35;56.53;;;7.47;;
57093;SDS011;42970;50.996;3.706;2024-01-25T08:01:02;103.60;;;7.63;;
57093;SDS011;42970;50.996;3.706;2024-01-25T08:03:29;61.03;;;7.43;;
57093;SDS011;42970;50.996;3.706;2024-01-25T08:05:54;72.83;;;7.43;;
57093;SDS011;42970;50.996;3.706;2024-01-25T08:08:19;73.73;;;6.80;;
57093;SDS011;42970;50.996;3.706;2024-01-25T08:10:44;63.43;;;7.27;;
57093;SDS011;42970;50.996;3.706;2024-01-25T08:13:10;59.43;;;6.53;;
57093;SDS011;42970;50.996;3.706;2024-01-25T08:15:36;55.70;;;7.43;;
57093;SDS011;42970;50.996;3.706;2024-01-25T08:18:01;82.00;;;6.80;;
57093;SDS011;42970;50.996;3.706;2024-01-25T08:20:27;110.87;;;7.70;;
57093;SDS011;42970;50.996;3.706;2024-01-25T08:22:52;31.77;;;6.40;;
57093;SDS011;42970;50.996;3.706;2024-01-25T08:25:18;57.87;;;6.83;;
57093;SDS011;42970;50.996;3.706;2024-01-25T08:27:45;74.10;;;7.17;;
57093;SDS011;42970;50.996;3.706;2024-01-25T08:30:10;54.67;;;6.63;;
57093;SDS011;42970;50.996;3.706;2024-01-25T08:32:36;69.43;;;8.40;;
57093;SDS011;42970;50.996;3.706;2024-01-25T08:35:01;72.73;;;7.40;;
57093;SDS011;42970;50.996;3.706;2024-01-25T08:37:26;52.97;;;6.70;;
57093;SDS011;42970;50.996;3.706;2024-01-25T08:39:52;87.57;;;6.90;;
57093;SDS011;42970;50.996;3.706;2024-01-25T08:42:17;73.33;;;7.07;;
57093;SDS011;42970;50.996;3.706;2024-01-25T08:44:43;77.77;;;8.23;;
57093;SDS011;42970;50.996;3.706;2024-01-25T08:47:14;98.57;;;8.33;;
57093;SDS011;42970;50.996;3.706;2024-01-25T08:49:40;39.27;;;7.13;;
57093;SDS011;42970;50.996;3.706;2024-01-25T08:52:05;78.53;;;7.97;;
57093;SDS011;42970;50.996;3.706;2024-01-25T08:54:31;67.70;;;8.13;;
57093;SDS011;42970;50.996;3.706;2024-01-25T08:56:57;57.30;;;7.07;;
57093;SDS011;42970;50.996;3.706;2024-01-25T08:59:22;73.67;;;8.10;;
57093;SDS011;42970;50.996;3.706;2024-01-25T09:01:47;44.10;;;6.93;;
57093;SDS011;42970;50.996;3.706;2024-01-25T09:04:12;45.03;;;7.30;;
57093;SDS011;42970;50.996;3.706;2024-01-25T09:06:38;39.90;;;7.57;;
57093;SDS011;42970;50.996;3.706;2024-01-25T09:09:03;38.43;;;8.23;;
57093;SDS011;42970;50.996;3.706;2024-01-25T09:11:28;42.40;;;8.53;;
57093;SDS011;42970;50.996;3.706;2024-01-25T09:13:54;35.47;;;8.03;;
57093;SDS011;42970;50.996;3.706;2024-01-25T09:16:19;22.50;;;7.40;;
57093;SDS011;42970;50.996;3.706;2024-01-25T09:18:45;40.80;;;8.57;;
57093;SDS011;42970;50.996;3.706;2024-01-25T09:21:10;59.13;;;8.70;;
57093;SDS011;42970;50.996;3.706;2024-01-25T09:23:35;35.20;;;9.33;;
57093;SDS011;42970;50.996;3.706;2024-01-25T09:26:00;16.83;;;7.13;;
57093;SDS011;42970;50.996;3.706;2024-01-25T09:28:26;31.77;;;8.68;;
57093;SDS011;42970;50.996;3.706;2024-01-25T09:30:51;27.70;;;8.93;;
57093;SDS011;42970;50.996;3.706;2024-01-25T09:33:16;25.77;;;8.27;;
57093;SDS011;42970;50.996;3.706;2024-01-25T09:35:41;29.37;;;8.63;;
57093;SDS011;42970;50.996;3.706;2024-01-25T09:38:07;52.27;;;10.27;;
57093;SDS011;42970;50.996;3.706;2024-01-25T09:40:32;33.30;;;10.63;;
57093;SDS011;42970;50.996;3.706;2024-01-25T09:42:58;28.42;;;9.13;;
57093;SDS011;42970;50.996;3.706;2024-01-25T09:45:23;30.17;;;10.47;;
57093;SDS011;42970;50.996;3.706;2024-01-25T09:47:49;44.83;;;11.30;;
57093;SDS011;42970;50.996;3.706;2024-01-25T09:50:14;30.83;;;9.10;;
57093;SDS011;42970;50.996;3.706;2024-01-25T09:52:39;40.10;;;10.85;;
57093;SDS011;42970;50.996;3.706;2024-01-25T09:55:08;35.13;;;9.70;;
57093;SDS011;42970;50.996;3.706;2024-01-25T09:57:38;42.33;;;11.17;;
57093;SDS011;42970;50.996;3.706;2024-01-25T10:00:05;27.25;;;8.90;;
57093;SDS011;42970;50.996;3.706;2024-01-25T10:02:36;39.22;;;10.07;;
57093;SDS011;42970;50.996;3.706;2024-01-25T10:05:02;37.92;;;10.18;;
57093;SDS011;42970;50.996;3.706;2024-01-25T10:07:37;42.78;;;10.27;;
57093;SDS011;42970;50.996;3.706;2024-01-25T10:10:03;26.83;;;8.83;;
57093;SDS011;42970;50.996;3.706;2024-01-25T10:12:30;35.53;;;8.55;;
57093;SDS011;42970;50.996;3.706;2024-01-25T10:14:55;36.45;;;8.38;;
57093;SDS011;42970;50.996;3.706;2024-01-25T10:17:20;24.97;;;7.97;;
57093;SDS011;42970;50.996;3.706;2024-01-25T10:19:45;24.07;;;8.00;;
57093;SDS011;42970;50.996;3.706;2024-01-25T10:22:11;34.53;;;8.10;;
57093;SDS011;42970;50.996;3.706;2024-01-25T10:24:38;30.40;;;7.30;;
57093;SDS011;42970;50.996;3.706;2024-01-25T10:27:03;39.20;;;7.82;;
57093;SDS011;42970;50.996;3.706;2024-01-25T10:29:29;29.30;;;7.35;;
57093;SDS011;42970;50.996;3.706;2024-01-25T10:31:54;24.00;;;7.03;;
57093;SDS011;42970;50.996;3.706;2024-01-25T10:34:19;28.45;;;8.38;;
57093;SDS011;42970;50.996;3.706;2024-01-25T10:36:45;30.63;;;8.75;;
57093;SDS011;42970;50.996;3.706;2024-01-25T10:39:11;32.33;;;8.40;;
57093;SDS011;42970;50.996;3.706;2024-01-25T10:41:38;35.47;;;8.43;;
57093;SDS011;42970;50.996;3.706;2024-01-25T10:44:04;37.20;;;9.30;;
57093;SDS011;42970;50.996;3.706;2024-01-25T10:46:31;49.75;;;9.05;;
57093;SDS011;42970;50.996;3.706;2024-01-25T10:48:57;49.33;;;9.85;;
57093;SDS011;42970;50.996;3.706;2024-01-25T10:51:23;43.10;;;8.70;;
57093;SDS011;42970;50.996;3.706;2024-01-25T10:53:48;51.00;;;12.02;;
57093;SDS011;42970;50.996;3.706;2024-01-25T10:56:14;46.30;;;9.98;;
57093;SDS011;42970;50.996;3.706;2024-01-25T10:58:42;39.92;;;9.27;;
57093;SDS011;42970;50.996;3.706;2024-01-25T11:01:08;47.20;;;9.53;;
57093;SDS011;42970;50.996;3.706;2024-01-25T11:03:38;52.53;;;10.20;;
57093;SDS011;42970;50.996;3.706;2024-01-25T11:06:07;47.63;;;10.25;;
57093;SDS011;42970;50.996;3.706;2024-01-25T11:08:34;54.17;;;10.07;;
57093;SDS011;42970;50.996;3.706;2024-01-25T11:11:02;59.00;;;10.63;;
57093;SDS011;42970;50.996;3.706;2024-01-25T11:13:28;50.77;;;10.33;;
57093;SDS011;42970;50.996;3.706;2024-01-25T11:15:55;52.05;;;9.10;;
57093;SDS011;42970;50.996;3.706;2024-01-25T11:18:20;54.95;;;11.68;;
57093;SDS011;42970;50.996;3.706;2024-01-25T11:20:49;55.72;;;10.32;;
57093;SDS011;42970;50.996;3.706;2024-01-25T11:23:15;49.50;;;9.45;;
57093;SDS011;42970;50.996;3.706;2024-01-25T11:25:41;47.73;;;10.17;;
57093;SDS011;42970;50.996;3.706;2024-01-25T11:28:09;46.83;;;11.23;;
57093;SDS011;42970;50.996;3.706;2024-01-25T11:30:34;55.25;;;11.27;;
57093;SDS011;42970;50.996;3.706;2024-01-25T11:33:00;50.55;;;12.15;;
57093;SDS011;42970;50.996;3.706;2024-01-25T11:35:25;59.38;;;12.50;;
57093;SDS011;42970;50.996;3.706;2024-01-25T11:37:50;43.97;;;9.85;;
57093;SDS011;42970;50.996;3.706;2024-01-25T11:40:19;56.80;;;10.93;;
57093;SDS011;42970;50.996;3.706;2024-01-25T11:42:45;45.83;;;10.70;;
57093;SDS011;42970;50.996;3.706;2024-01-25T11:45:12;41.58;;;10.43;;
57093;SDS011;42970;50.996;3.706;2024-01-25T11:47:38;37.45;;;10.50;;
57093;SDS011;42970;50.996;3.706;2024-01-25T11:50:04;42.67;;;11.33;;
57093;SDS011;42970;50.996;3.706;2024-01-25T11:52:29;33.10;;;10.05;;
57093;SDS011;42970;50.996;3.706;2024-01-25T11:54:57;43.72;;;9.43;;
57093;SDS011;42970;50.996;3.706;2024-01-25T11:57:23;36.33;;;8.60;;
57093;SDS011;42970;50.996;3.706;2024-01-25T11:59:48;31.80;;;9.13;;
57093;SDS011;42970;50.996;3.706;2024-01-25T12:02:14;33.58;;;9.10;;
57093;SDS011;42970;50.996;3.706;2024-01-25T12:04:40;31.85;;;8.85;;
57093;SDS011;42970;50.996;3.706;2024-01-25T12:07:05;32.90;;;8.45;;
57093;SDS011;42970;50.996;3.706;2024-01-25T12:09:31;28.23;;;8.68;;
57093;SDS011;42970;50.996;3.706;2024-01-25T12:11:57;30.52;;;9.13;;
57093;SDS011;42970;50.996;3.706;2024-01-25T12:14:25;39.22;;;9.23;;
57093;SDS011;42970;50.996;3.706;2024-01-25T12:16:50;22.95;;;8.82;;
57093;SDS011;42970;50.996;3.706;2024-01-25T12:19:15;28.02;;;8.82;;
57093;SDS011;42970;50.996;3.706;2024-01-25T12:21:43;34.40;;;10.65;;
57093;SDS011;42970;50.996;3.706;2024-01-25T12:24:08;24.17;;;8.10;;
57093;SDS011;42970;50.996;3.706;2024-01-25T12:26:34;40.13;;;9.57;;
57093;SDS011;42970;50.996;3.706;2024-01-25T12:29:00;29.83;;;9.88;;
57093;SDS011;42970;50.996;3.706;2024-01-25T12:31:25;33.67;;;9.23;;
57093;SDS011;42970;50.996;3.706;2024-01-25T12:33:51;31.65;;;10.93;;
57093;SDS011;42970;50.996;3.706;2024-01-25T12:36:16;20.83;;;8.88;;
57093;SDS011;42970;50.996;3.706;2024-01-25T12:38:41;23.02;;;8.95;;
57093;SDS011;42970;50.996;3.706;2024-01-25T12:41:07;29.95;;;8.75;;
57093;SDS011;42970;50.996;3.706;2024-01-25T12:43:32;24.05;;;8.65;;
57093;SDS011;42970;50.996;3.706;2024-01-25T12:45:57;21.10;;;8.27;;
57093;SDS011;42970;50.996;3.706;2024-01-25T12:48:23;22.40;;;7.72;;
57093;SDS011;42970;50.996;3.706;2024-01-25T12:50:48;23.63;;;8.20;;
57093;SDS011;42970;50.996;3.706;2024-01-25T12:53:14;26.83;;;8.80;;
57093;SDS011;42970;50.996;3.706;2024-01-25T12:55:39;22.00;;;8.68;;
57093;SDS011;42970;50.996;3.706;2024-01-25T12:58:05;20.55;;;8.13;;
57093;SDS011;42970;50.996;3.706;2024-01-25T13:00:31;22.02;;;7.55;;
57093;SDS011;42970;50.996;3.706;2024-01-25T13:02:57;20.35;;;8.43;;
57093;SDS011;42970;50.996;3.706;2024-01-25T13:05:23;17.60;;;7.22;;
57093;SDS011;42970;50.996;3.706;2024-01-25T13:07:48;19.23;;;7.28;;
57093;SDS011;42970;50.996;3.706;2024-01-25T13:10:14;18.10;;;7.15;;
57093;SDS011;42970;50.996;3.706;2024-01-25T13:12:39;15.93;;;7.35;;
57093;SDS011;42970;50.996;3.706;2024-01-25T13:15:05;16.50;;;7.18;;
57093;SDS011;42970;50.996;3.706;2024-01-25T13:17:30;19.70;;;7.03;;
57093;SDS011;42970;50.996;3.706;2024-01-25T13:19:57;15.93;;;5.97;;
57093;SDS011;42970;50.996;3.706;2024-01-25T13:22:22;13.52;;;5.43;;
57093;SDS011;42970;50.996;3.706;2024-01-25T13:24:49;13.82;;;6.40;;
57093;SDS011;42970;50.996;3.706;2024-01-25T13:27:15;21.48;;;6.32;;
57093;SDS011;42970;50.996;3.706;2024-01-25T13:29:40;13.25;;;7.43;;
57093;SDS011;42970;50.996;3.706;2024-01-25T13:32:06;17.48;;;6.35;;
57093;SDS011;42970;50.996;3.706;2024-01-25T13:34:31;18.63;;;6.63;;
57093;SDS011;42970;50.996;3.706;2024-01-25T13:36:56;19.42;;;8.02;;
57093;SDS011;42970;50.996;3.706;2024-01-25T13:39:22;17.67;;;7.80;;
57093;SDS011;42970;50.996;3.706;2024-01-25T13:41:47;12.80;;;6.40;;
57093;SDS011;42970;50.996;3.706;2024-01-25T13:44:14;17.48;;;8.10;;
57093;SDS011;42970;50.996;3.706;2024-01-25T13:46:39;21.52;;;8.73;;
57093;SDS011;42970;50.996;3.706;2024-01-25T13:49:05;20.33;;;6.80;;
57093;SDS011;42970;50.996;3.706;2024-01-25T13:51:30;12.85;;;6.47;;
57093;SDS011;42970;50.996;3.706;2024-01-25T13:53:55;13.40;;;5.13;;
57093;SDS011;42970;50.996;3.706;2024-01-25T13:56:20;23.58;;;9.15;;
57093;SDS011;42970;50.996;3.706;2024-01-25T13:58:45;9.48;;;3.88;;
57093;SDS011;42970;50.996;3.706;2024-01-25T14:01:11;26.02;;;10.00;;
57093;SDS011;42970;50.996;3.706;2024-01-25T14:03:36;23.13;;;9.23;;
57093;SDS011;42970;50.996;3.706;2024-01-25T14:06:01;19.73;;;8.70;;
57093;SDS011;42970;50.996;3.706;2024-01-25T14:08:30;21.67;;;8.10;;
57093;SDS011;42970;50.996;3.706;2024-01-25T14:10:55;26.90;;;10.38;;
57093;SDS011;42970;50.996;3.706;2024-01-25T14:13:21;21.38;;;9.45;;
57093;SDS011;42970;50.996;3.706;2024-01-25T14:15:46;20.20;;;8.77;;
57093;SDS011;42970;50.996;3.706;2024-01-25T14:18:11;21.40;;;9.18;;
57093;SDS011;42970;50.996;3.706;2024-01-25T14:20:37;21.77;;;9.30;;
57093;SDS011;42970;50.996;3.706;2024-01-25T14:23:02;22.38;;;9.27;;